sensor_id;sensor_type;location;lat;lon;timestamp;P1;P2;P0
70436;PMS5003;57877;39.750;-104.894;2022-12-29T00:01:26;0;0;
70436;PMS5003;57877;39.750;-104.894;2022-12-29T00:03:52;0;0;
70436;PMS5003;57877;39.750;-104.894;2022-12-29T00:06:18;0;0;
70436;PMS5003;57877;39.750;-104.894;2022-12-29T00:08:44;0;0;
70436;PMS5003;57877;39.750;-104.894;2022-12-29T00:11:09;0;0;
70436;PMS5003;57877;39.750;-104.894;2022-12-29T00:13:35;0;0;
70436;PMS5003;57877;39.750;-104.894;2022-12-29T00:16:01;0;0;
70436;PMS5003;57877;39.750;-104.894;2022-12-29T00:18:27;0;0;
70436;PMS5003;57877;39.750;-104.894;2022-12-29T00:20:51;0;0;
70436;PMS5003;57877;39.750;-104.894;2022-12-29T00:23:17;0;0;
70436;PMS5003;57877;39.750;-104.894;2022-12-29T00:25:43;0;0;
70436;PMS5003;57877;39.750;-104.894;2022-12-29T00:28:08;0;0;
70436;PMS5003;57877;39.750;-104.894;2022-12-29T00:30:34;0;0;
70436;PMS5003;57877;39.750;-104.894;2022-12-29T00:33:00;0;0;
70436;PMS5003;57877;39.750;-104.894;2022-12-29T00:35:26;0;0;
70436;PMS5003;57877;39.750;-104.894;2022-12-29T00:37:51;0;0;
70436;PMS5003;57877;39.750;-104.894;2022-12-29T00:40:17;0;0;
70436;PMS5003;57877;39.750;-104.894;2022-12-29T00:42:43;0;0;
70436;PMS5003;57877;39.750;-104.894;2022-12-29T00:45:09;0;0;
70436;PMS5003;57877;39.750;-104.894;2022-12-29T00:47:40;0;0;
70436;PMS5003;57877;39.750;-104.894;2022-12-29T00:50:01;0;0;
70436;PMS5003;57877;39.750;-104.894;2022-12-29T00:52:27;0;0;
70436;PMS5003;57877;39.750;-104.894;2022-12-29T00:54:53;0;0;
70436;PMS5003;57877;39.750;-104.894;2022-12-29T00:57:19;0;0;
70436;PMS5003;57877;39.750;-104.894;2022-12-29T00:59:45;0;0;
70436;PMS5003;57877;39.750;-104.894;2022-12-29T01:02:11;0;0;
70436;PMS5003;57877;39.750;-104.894;2022-12-29T01:04:36;0;0;
70436;PMS5003;57877;39.750;-104.894;2022-12-29T01:07:01;0;0;
70436;PMS5003;57877;39.750;-104.894;2022-12-29T01:09:27;0;0;
70436;PMS5003;57877;39.750;-104.894;2022-12-29T01:11:53;0;0;
70436;PMS5003;57877;39.750;-104.894;2022-12-29T01:14:19;0;0;
70436;PMS5003;57877;39.750;-104.894;2022-12-29T01:16:45;0;0;
70436;PMS5003;57877;39.750;-104.894;2022-12-29T01:19:11;0;0;
70436;PMS5003;57877;39.750;-104.894;2022-12-29T01:21:37;0;0;
70436;PMS5003;57877;39.750;-104.894;2022-12-29T01:24:03;0;0;
70436;PMS5003;57877;39.750;-104.894;2022-12-29T01:26:29;0;0;
70436;PMS5003;57877;39.750;-104.894;2022-12-29T01:28:55;0;0;
70436;PMS5003;57877;39.750;-104.894;2022-12-29T01:31:21;0;0;
70436;PMS5003;57877;39.750;-104.894;2022-12-29T01:33:47;0;0;
70436;PMS5003;57877;39.750;-104.894;2022-12-29T01:36:14;0;0;
70436;PMS5003;57877;39.750;-104.894;2022-12-29T01:38:40;0;0;
70436;PMS5003;57877;39.750;-104.894;2022-12-29T01:41:06;0;0;
70436;PMS5003;57877;39.750;-104.894;2022-12-29T01:45:57;0;0;
70436;PMS5003;57877;39.750;-104.894;2022-12-29T01:48:23;0;0;
70436;PMS5003;57877;39.750;-104.894;2022-12-29T01:50:50;0;0;
70436;PMS5003;57877;39.750;-104.894;2022-12-29T01:53:17;0;0;
70436;PMS5003;57877;39.750;-104.894;2022-12-29T01:55:42;0;0;
70436;PMS5003;57877;39.750;-104.894;2022-12-29T01:58:06;0;0;
70436;PMS5003;57877;39.750;-104.894;2022-12-29T02:00:31;0;0;
70436;PMS5003;57877;39.750;-104.894;2022-12-29T02:02:57;0;0;
70436;PMS5003;57877;39.750;-104.894;2022-12-29T02:05:24;0;0;
70436;PMS5003;57877;39.750;-104.894;2022-12-29T02:07:49;0;0;
70436;PMS5003;57877;39.750;-104.894;2022-12-29T02:10:14;0;0;
70436;PMS5003;57877;39.750;-104.894;2022-12-29T02:12:39;0;0;
70436;PMS5003;57877;39.750;-104.894;2022-12-29T02:15:04;0;0;
70436;PMS5003;57877;39.750;-104.894;2022-12-29T02:17:33;0;0;
70436;PMS5003;57877;39.750;-104.894;2022-12-29T02:20:03;0;0;
70436;PMS5003;57877;39.750;-104.894;2022-12-29T02:22:20;0;0;
70436;PMS5003;57877;39.750;-104.894;2022-12-29T02:24:49;0;0;
70436;PMS5003;57877;39.750;-104.894;2022-12-29T02:27:14;0;0;
70436;PMS5003;57877;39.750;-104.894;2022-12-29T02:32:00;0;0;
70436;PMS5003;57877;39.750;-104.894;2022-12-29T02:34:26;0;0;
70436;PMS5003;57877;39.750;-104.894;2022-12-29T02:36:51;0;0;
70436;PMS5003;57877;39.750;-104.894;2022-12-29T02:39:18;0;0;
70436;PMS5003;57877;39.750;-104.894;2022-12-29T02:41:42;0;0;
70436;PMS5003;57877;39.750;-104.894;2022-12-29T02:44:08;0;0;
70436;PMS5003;57877;39.750;-104.894;2022-12-29T02:46:32;0;0;
70436;PMS5003;57877;39.750;-104.894;2022-12-29T02:48:55;0;0;
70436;PMS5003;57877;39.750;-104.894;2022-12-29T02:51:20;0;0;
70436;PMS5003;57877;39.750;-104.894;2022-12-29T02:53:44;0;0;
70436;PMS5003;57877;39.750;-104.894;2022-12-29T02:56:09;0;0;
70436;PMS5003;57877;39.750;-104.894;2022-12-29T02:58:40;0;0;
70436;PMS5003;57877;39.750;-104.894;2022-12-29T03:01:05;0;0;
70436;PMS5003;57877;39.750;-104.894;2022-12-29T03:03:28;0;0;
70436;PMS5003;57877;39.750;-104.894;2022-12-29T03:05:55;0;0;
70436;PMS5003;57877;39.750;-104.894;2022-12-29T03:08:18;0;0;
70436;PMS5003;57877;39.750;-104.894;2022-12-29T03:10:44;0;0;
70436;PMS5003;57877;39.750;-104.894;2022-12-29T03:13:08;0;0;
70436;PMS5003;57877;39.750;-104.894;2022-12-29T03:15:33;0;0;
70436;PMS5003;57877;39.750;-104.894;2022-12-29T03:17:57;0;0;
70436;PMS5003;57877;39.750;-104.894;2022-12-29T03:20:22;0;0;
70436;PMS5003;57877;39.750;-104.894;2022-12-29T03:22:47;0;0;
70436;PMS5003;57877;39.750;-104.894;2022-12-29T03:25:13;0;0;
70436;PMS5003;57877;39.750;-104.894;2022-12-29T03:27:36;0;0;
70436;PMS5003;57877;39.750;-104.894;2022-12-29T03:30:02;0;0;
70436;PMS5003;57877;39.750;-104.894;2022-12-29T03:32:28;0;0;
70436;PMS5003;57877;39.750;-104.894;2022-12-29T03:34:51;0;0;
70436;PMS5003;57877;39.750;-104.894;2022-12-29T03:37:17;0;0;
70436;PMS5003;57877;39.750;-104.894;2022-12-29T03:39:41;0;0;
70436;PMS5003;57877;39.750;-104.894;2022-12-29T03:42:13;0;0;
70436;PMS5003;57877;39.750;-104.894;2022-12-29T03:44:33;0;0;
70436;PMS5003;57877;39.750;-104.894;2022-12-29T03:46:57;0;0;
70436;PMS5003;57877;39.750;-104.894;2022-12-29T03:49:22;0;0;
70436;PMS5003;57877;39.750;-104.894;2022-12-29T03:54:13;0;0;
70436;PMS5003;57877;39.750;-104.894;2022-12-29T03:56:38;0;0;
70436;PMS5003;57877;39.750;-104.894;2022-12-29T03:59:03;0;0;
70436;PMS5003;57877;39.750;-104.894;2022-12-29T04:01:28;0;0;
70436;PMS5003;57877;39.750;-104.894;2022-12-29T04:03:53;0;0;
70436;PMS5003;57877;39.750;-104.894;2022-12-29T04:06:18;0;0;
70436;PMS5003;57877;39.750;-104.894;2022-12-29T04:08:43;0;0;
70436;PMS5003;57877;39.750;-104.894;2022-12-29T04:11:08;0;0;
70436;PMS5003;57877;39.750;-104.894;2022-12-29T04:13:33;0;0;
70436;PMS5003;57877;39.750;-104.894;2022-12-29T04:15:59;0;0;
70436;PMS5003;57877;39.750;-104.894;2022-12-29T04:18:23;0;0;
70436;PMS5003;57877;39.750;-104.894;2022-12-29T04:20:48;0;0;
70436;PMS5003;57877;39.750;-104.894;2022-12-29T04:23:13;0;0;
70436;PMS5003;57877;39.750;-104.894;2022-12-29T04:25:39;0;0;
70436;PMS5003;57877;39.750;-104.894;2022-12-29T04:28:04;0;0;
70436;PMS5003;57877;39.750;-104.894;2022-12-29T04:30:29;0;0;
70436;PMS5003;57877;39.750;-104.894;2022-12-29T04:32:54;0;0;
70436;PMS5003;57877;39.750;-104.894;2022-12-29T04:35:19;0;0;
70436;PMS5003;57877;39.750;-104.894;2022-12-29T04:37:49;0;0;
70436;PMS5003;57877;39.750;-104.894;2022-12-29T04:40:10;0;0;
70436;PMS5003;57877;39.750;-104.894;2022-12-29T04:42:34;0;0;
70436;PMS5003;57877;39.750;-104.894;2022-12-29T04:44:59;0;0;
70436;PMS5003;57877;39.750;-104.894;2022-12-29T04:47:25;0;0;
70436;PMS5003;57877;39.750;-104.894;2022-12-29T04:49:50;0;0;
70436;PMS5003;57877;39.750;-104.894;2022-12-29T04:52:15;0;0;
70436;PMS5003;57877;39.750;-104.894;2022-12-29T04:54:41;0;0;
70436;PMS5003;57877;39.750;-104.894;2022-12-29T04:57:06;0;0;
70436;PMS5003;57877;39.750;-104.894;2022-12-29T04:59:31;0;0;
70436;PMS5003;57877;39.750;-104.894;2022-12-29T05:01:56;0;0;
70436;PMS5003;57877;39.750;-104.894;2022-12-29T05:04:21;0;0;
70436;PMS5003;57877;39.750;-104.894;2022-12-29T05:06:46;0;0;
70436;PMS5003;57877;39.750;-104.894;2022-12-29T05:09:11;0;0;
70436;PMS5003;57877;39.750;-104.894;2022-12-29T05:11:36;0;0;
70436;PMS5003;57877;39.750;-104.894;2022-12-29T05:14:01;0;0;
70436;PMS5003;57877;39.750;-104.894;2022-12-29T05:16:27;0;0;
70436;PMS5003;57877;39.750;-104.894;2022-12-29T05:18:51;0;0;
70436;PMS5003;57877;39.750;-104.894;2022-12-29T05:21:17;0;0;
70436;PMS5003;57877;39.750;-104.894;2022-12-29T05:23:42;0;0;
70436;PMS5003;57877;39.750;-104.894;2022-12-29T05:26:08;0;0;
70436;PMS5003;57877;39.750;-104.894;2022-12-29T05:28:32;0;0;
70436;PMS5003;57877;39.750;-104.894;2022-12-29T05:31:02;0;0;
70436;PMS5003;57877;39.750;-104.894;2022-12-29T05:33:22;0;0;
70436;PMS5003;57877;39.750;-104.894;2022-12-29T05:35:47;0;0;
70436;PMS5003;57877;39.750;-104.894;2022-12-29T05:38:12;0;0;
70436;PMS5003;57877;39.750;-104.894;2022-12-29T05:40:37;0;0;
70436;PMS5003;57877;39.750;-104.894;2022-12-29T05:43:02;0;0;
70436;PMS5003;57877;39.750;-104.894;2022-12-29T05:45:27;0;0;
70436;PMS5003;57877;39.750;-104.894;2022-12-29T05:47:52;0;0;
70436;PMS5003;57877;39.750;-104.894;2022-12-29T05:50:17;0;0;
70436;PMS5003;57877;39.750;-104.894;2022-12-29T05:52:42;0;0;
70436;PMS5003;57877;39.750;-104.894;2022-12-29T05:55:07;0;0;
70436;PMS5003;57877;39.750;-104.894;2022-12-29T05:57:32;0;0;
70436;PMS5003;57877;39.750;-104.894;2022-12-29T05:59:58;0;0;
70436;PMS5003;57877;39.750;-104.894;2022-12-29T06:02:23;0;0;
70436;PMS5003;57877;39.750;-104.894;2022-12-29T06:04:48;0;0;
70436;PMS5003;57877;39.750;-104.894;2022-12-29T06:07:13;0;0;
70436;PMS5003;57877;39.750;-104.894;2022-12-29T06:09:38;0;0;
70436;PMS5003;57877;39.750;-104.894;2022-12-29T06:12:03;0;0;
70436;PMS5003;57877;39.750;-104.894;2022-12-29T06:14:28;0;0;
70436;PMS5003;57877;39.750;-104.894;2022-12-29T06:16:53;0;0;
70436;PMS5003;57877;39.750;-104.894;2022-12-29T06:19:18;0;0;
70436;PMS5003;57877;39.750;-104.894;2022-12-29T06:21:43;0;0;
70436;PMS5003;57877;39.750;-104.894;2022-12-29T06:24:08;0;0;
70436;PMS5003;57877;39.750;-104.894;2022-12-29T06:26:33;0;0;
70436;PMS5003;57877;39.750;-104.894;2022-12-29T06:28:58;0;0;
70436;PMS5003;57877;39.750;-104.894;2022-12-29T06:31:23;0;0;
70436;PMS5003;57877;39.750;-104.894;2022-12-29T06:33:48;0;0;
70436;PMS5003;57877;39.750;-104.894;2022-12-29T06:36:14;0;0;
70436;PMS5003;57877;39.750;-104.894;2022-12-29T06:38:39;0;0;
70436;PMS5003;57877;39.750;-104.894;2022-12-29T06:41:04;0;0;
70436;PMS5003;57877;39.750;-104.894;2022-12-29T06:43:29;0;0;
70436;PMS5003;57877;39.750;-104.894;2022-12-29T06:45:54;0;0;
70436;PMS5003;57877;39.750;-104.894;2022-12-29T06:50:44;0;0;
70436;PMS5003;57877;39.750;-104.894;2022-12-29T06:53:09;0;0;
70436;PMS5003;57877;39.750;-104.894;2022-12-29T06:55:34;0;0;
70436;PMS5003;57877;39.750;-104.894;2022-12-29T06:57:59;0;0;
70436;PMS5003;57877;39.750;-104.894;2022-12-29T07:00:24;0;0;
70436;PMS5003;57877;39.750;-104.894;2022-12-29T07:02:49;0;0;
70436;PMS5003;57877;39.750;-104.894;2022-12-29T07:05:15;0;0;
70436;PMS5003;57877;39.750;-104.894;2022-12-29T07:07:41;0;0;
70436;PMS5003;57877;39.750;-104.894;2022-12-29T07:10:06;0;0;
70436;PMS5003;57877;39.750;-104.894;2022-12-29T07:12:30;0;0;
70436;PMS5003;57877;39.750;-104.894;2022-12-29T07:14:56;0;0;
70436;PMS5003;57877;39.750;-104.894;2022-12-29T07:17:21;0;0;
70436;PMS5003;57877;39.750;-104.894;2022-12-29T07:19:46;0;0;
70436;PMS5003;57877;39.750;-104.894;2022-12-29T07:22:11;0;0;
70436;PMS5003;57877;39.750;-104.894;2022-12-29T07:24:36;0;0;
70436;PMS5003;57877;39.750;-104.894;2022-12-29T07:27:01;0;0;
70436;PMS5003;57877;39.750;-104.894;2022-12-29T07:29:27;0;0;
70436;PMS5003;57877;39.750;-104.894;2022-12-29T07:31:52;0;0;
70436;PMS5003;57877;39.750;-104.894;2022-12-29T07:34:17;0;0;
70436;PMS5003;57877;39.750;-104.894;2022-12-29T07:36:42;0;0;
70436;PMS5003;57877;39.750;-104.894;2022-12-29T07:39:07;0;0;
70436;PMS5003;57877;39.750;-104.894;2022-12-29T07:41:32;0;0;
70436;PMS5003;57877;39.750;-104.894;2022-12-29T07:43:58;0;0;
70436;PMS5003;57877;39.750;-104.894;2022-12-29T07:46:23;0;0;
70436;PMS5003;57877;39.750;-104.894;2022-12-29T07:48:48;0;0;
70436;PMS5003;57877;39.750;-104.894;2022-12-29T07:51:13;0;0;
70436;PMS5003;57877;39.750;-104.894;2022-12-29T07:53:38;0;0;
70436;PMS5003;57877;39.750;-104.894;2022-12-29T07:56:04;0;0;
70436;PMS5003;57877;39.750;-104.894;2022-12-29T07:58:29;0;0;
70436;PMS5003;57877;39.750;-104.894;2022-12-29T08:00:54;0;0;
70436;PMS5003;57877;39.750;-104.894;2022-12-29T08:03:19;0;0;
70436;PMS5003;57877;39.750;-104.894;2022-12-29T08:05:44;0;0;
70436;PMS5003;57877;39.750;-104.894;2022-12-29T08:08:10;0;0;
70436;PMS5003;57877;39.750;-104.894;2022-12-29T08:10:35;0;0;
70436;PMS5003;57877;39.750;-104.894;2022-12-29T08:13:00;0;0;
70436;PMS5003;57877;39.750;-104.894;2022-12-29T08:15:25;0;0;
70436;PMS5003;57877;39.750;-104.894;2022-12-29T08:17:50;0;0;
70436;PMS5003;57877;39.750;-104.894;2022-12-29T08:20:16;0;0;
70436;PMS5003;57877;39.750;-104.894;2022-12-29T08:22:41;0;0;
70436;PMS5003;57877;39.750;-104.894;2022-12-29T08:25:06;0;0;
70436;PMS5003;57877;39.750;-104.894;2022-12-29T08:27:31;0;0;
70436;PMS5003;57877;39.750;-104.894;2022-12-29T08:29:56;0;0;
70436;PMS5003;57877;39.750;-104.894;2022-12-29T08:32:21;0;0;
70436;PMS5003;57877;39.750;-104.894;2022-12-29T08:34:47;0;0;
70436;PMS5003;57877;39.750;-104.894;2022-12-29T08:37:12;0;0;
70436;PMS5003;57877;39.750;-104.894;2022-12-29T08:39:37;0;0;
70436;PMS5003;57877;39.750;-104.894;2022-12-29T08:42:02;0;0;
70436;PMS5003;57877;39.750;-104.894;2022-12-29T08:44:28;0;0;
70436;PMS5003;57877;39.750;-104.894;2022-12-29T08:46:53;0;0;
70436;PMS5003;57877;39.750;-104.894;2022-12-29T08:49:18;0;0;
70436;PMS5003;57877;39.750;-104.894;2022-12-29T08:51:43;0;0;
70436;PMS5003;57877;39.750;-104.894;2022-12-29T08:54:08;0;0;
70436;PMS5003;57877;39.750;-104.894;2022-12-29T08:56:34;0;0;
70436;PMS5003;57877;39.750;-104.894;2022-12-29T08:58:59;0;0;
70436;PMS5003;57877;39.750;-104.894;2022-12-29T09:01:24;0;0;
70436;PMS5003;57877;39.750;-104.894;2022-12-29T09:03:49;0;0;
70436;PMS5003;57877;39.750;-104.894;2022-12-29T09:06:15;0;0;
70436;PMS5003;57877;39.750;-104.894;2022-12-29T09:08:40;0;0;
70436;PMS5003;57877;39.750;-104.894;2022-12-29T09:11:07;0;0;
70436;PMS5003;57877;39.750;-104.894;2022-12-29T09:13:30;0;0;
70436;PMS5003;57877;39.750;-104.894;2022-12-29T09:15:58;0;0;
70436;PMS5003;57877;39.750;-104.894;2022-12-29T09:18:20;0;0;
70436;PMS5003;57877;39.750;-104.894;2022-12-29T09:20:45;0;0;
70436;PMS5003;57877;39.750;-104.894;2022-12-29T09:23:11;0;0;
70436;PMS5003;57877;39.750;-104.894;2022-12-29T09:25:36;0;0;
70436;PMS5003;57877;39.750;-104.894;2022-12-29T09:28:01;0;0;
70436;PMS5003;57877;39.750;-104.894;2022-12-29T09:30:26;1;0;
70436;PMS5003;57877;39.750;-104.894;2022-12-29T09:32:51;0;0;
70436;PMS5003;57877;39.750;-104.894;2022-12-29T09:35:17;1;1;
70436;PMS5003;57877;39.750;-104.894;2022-12-29T09:37:42;2;2;
70436;PMS5003;57877;39.750;-104.894;2022-12-29T09:40:09;0;0;
70436;PMS5003;57877;39.750;-104.894;2022-12-29T09:42:34;0;0;
70436;PMS5003;57877;39.750;-104.894;2022-12-29T09:45:03;1;0;
70436;PMS5003;57877;39.750;-104.894;2022-12-29T09:47:22;0;0;
70436;PMS5003;57877;39.750;-104.894;2022-12-29T09:49:48;0;0;
70436;PMS5003;57877;39.750;-104.894;2022-12-29T09:52:14;0;0;
70436;PMS5003;57877;39.750;-104.894;2022-12-29T09:54:40;0;0;
70436;PMS5003;57877;39.750;-104.894;2022-12-29T09:57:03;0;0;
70436;PMS5003;57877;39.750;-104.894;2022-12-29T09:59:32;0;0;
70436;PMS5003;57877;39.750;-104.894;2022-12-29T10:01:56;0;0;
70436;PMS5003;57877;39.750;-104.894;2022-12-29T10:04:19;0;0;
70436;PMS5003;57877;39.750;-104.894;2022-12-29T10:06:45;0;0;
70436;PMS5003;57877;39.750;-104.894;2022-12-29T10:09:11;0;0;
70436;PMS5003;57877;39.750;-104.894;2022-12-29T10:11:40;0;0;
70436;PMS5003;57877;39.750;-104.894;2022-12-29T10:14:07;0;0;
70436;PMS5003;57877;39.750;-104.894;2022-12-29T10:16:28;0;0;
70436;PMS5003;57877;39.750;-104.894;2022-12-29T10:21:17;0;0;
70436;PMS5003;57877;39.750;-104.894;2022-12-29T10:23:41;0;0;
70436;PMS5003;57877;39.750;-104.894;2022-12-29T10:26:11;0;0;
70436;PMS5003;57877;39.750;-104.894;2022-12-29T10:28:34;0;0;
70436;PMS5003;57877;39.750;-104.894;2022-12-29T10:30:56;0;0;
70436;PMS5003;57877;39.750;-104.894;2022-12-29T10:33:21;0;0;
70436;PMS5003;57877;39.750;-104.894;2022-12-29T10:35:46;0;0;
70436;PMS5003;57877;39.750;-104.894;2022-12-29T10:38:12;0;0;
70436;PMS5003;57877;39.750;-104.894;2022-12-29T10:40:38;0;0;
70436;PMS5003;57877;39.750;-104.894;2022-12-29T10:43:01;0;0;
70436;PMS5003;57877;39.750;-104.894;2022-12-29T10:45:28;0;0;
70436;PMS5003;57877;39.750;-104.894;2022-12-29T10:47:53;0;0;
70436;PMS5003;57877;39.750;-104.894;2022-12-29T10:50:17;0;0;
70436;PMS5003;57877;39.750;-104.894;2022-12-29T10:52:42;0;0;
70436;PMS5003;57877;39.750;-104.894;2022-12-29T10:55:12;0;0;
70436;PMS5003;57877;39.750;-104.894;2022-12-29T10:57:33;0;0;
70436;PMS5003;57877;39.750;-104.894;2022-12-29T10:59:58;0;0;
70436;PMS5003;57877;39.750;-104.894;2022-12-29T11:02:26;0;0;
70436;PMS5003;57877;39.750;-104.894;2022-12-29T11:04:49;0;0;
70436;PMS5003;57877;39.750;-104.894;2022-12-29T11:07:14;0;0;
70436;PMS5003;57877;39.750;-104.894;2022-12-29T11:09:38;0;0;
70436;PMS5003;57877;39.750;-104.894;2022-12-29T11:14:29;0;0;
70436;PMS5003;57877;39.750;-104.894;2022-12-29T11:16:56;0;0;
70436;PMS5003;57877;39.750;-104.894;2022-12-29T11:19:20;0;0;
70436;PMS5003;57877;39.750;-104.894;2022-12-29T11:21:44;0;0;
70436;PMS5003;57877;39.750;-104.894;2022-12-29T11:26:34;0;0;
70436;PMS5003;57877;39.750;-104.894;2022-12-29T11:29:05;0;0;
70436;PMS5003;57877;39.750;-104.894;2022-12-29T11:31:24;0;0;
70436;PMS5003;57877;39.750;-104.894;2022-12-29T11:33:49;0;0;
70436;PMS5003;57877;39.750;-104.894;2022-12-29T11:36:16;1;1;
70436;PMS5003;57877;39.750;-104.894;2022-12-29T11:38:40;0;0;
70436;PMS5003;57877;39.750;-104.894;2022-12-29T11:41:05;2;2;
70436;PMS5003;57877;39.750;-104.894;2022-12-29T11:43:31;0;0;
70436;PMS5003;57877;39.750;-104.894;2022-12-29T11:45:55;1;1;
70436;PMS5003;57877;39.750;-104.894;2022-12-29T11:48:20;2;2;
70436;PMS5003;57877;39.750;-104.894;2022-12-29T11:50:49;2;2;
70436;PMS5003;57877;39.750;-104.894;2022-12-29T11:53:14;2;1;
70436;PMS5003;57877;39.750;-104.894;2022-12-29T11:55:36;1;1;
70436;PMS5003;57877;39.750;-104.894;2022-12-29T11:58:02;1;1;
70436;PMS5003;57877;39.750;-104.894;2022-12-29T12:00:26;3;2;
70436;PMS5003;57877;39.750;-104.894;2022-12-29T12:02:53;1;1;
70436;PMS5003;57877;39.750;-104.894;2022-12-29T12:05:19;4;4;
70436;PMS5003;57877;39.750;-104.894;2022-12-29T12:07:42;2;2;
70436;PMS5003;57877;39.750;-104.894;2022-12-29T12:10:10;2;2;
70436;PMS5003;57877;39.750;-104.894;2022-12-29T12:12:33;2;2;
70436;PMS5003;57877;39.750;-104.894;2022-12-29T12:14:57;1;1;
70436;PMS5003;57877;39.750;-104.894;2022-12-29T12:17:23;3;3;
70436;PMS5003;57877;39.750;-104.894;2022-12-29T12:19:48;2;2;
70436;PMS5003;57877;39.750;-104.894;2022-12-29T12:22:14;3;2;
70436;PMS5003;57877;39.750;-104.894;2022-12-29T12:24:39;2;2;
70436;PMS5003;57877;39.750;-104.894;2022-12-29T12:27:07;3;2;
70436;PMS5003;57877;39.750;-104.894;2022-12-29T12:29:31;3;3;
70436;PMS5003;57877;39.750;-104.894;2022-12-29T12:31:54;3;3;
70436;PMS5003;57877;39.750;-104.894;2022-12-29T12:34:19;3;2;
70436;PMS5003;57877;39.750;-104.894;2022-12-29T12:36:47;3;3;
70436;PMS5003;57877;39.750;-104.894;2022-12-29T12:39:10;2;2;
70436;PMS5003;57877;39.750;-104.894;2022-12-29T12:41:35;2;2;
70436;PMS5003;57877;39.750;-104.894;2022-12-29T12:44:00;3;3;
70436;PMS5003;57877;39.750;-104.894;2022-12-29T12:48:53;3;3;
70436;PMS5003;57877;39.750;-104.894;2022-12-29T12:51:14;2;2;
70436;PMS5003;57877;39.750;-104.894;2022-12-29T12:53:43;3;3;
70436;PMS5003;57877;39.750;-104.894;2022-12-29T12:56:09;5;5;
70436;PMS5003;57877;39.750;-104.894;2022-12-29T12:58:31;4;4;
70436;PMS5003;57877;39.750;-104.894;2022-12-29T13:00:57;4;4;
70436;PMS5003;57877;39.750;-104.894;2022-12-29T13:03:21;5;5;
70436;PMS5003;57877;39.750;-104.894;2022-12-29T13:05:50;3;2;
70436;PMS5003;57877;39.750;-104.894;2022-12-29T13:17:51;5;4;
70436;PMS5003;57877;39.750;-104.894;2022-12-29T13:20:19;6;6;
70436;PMS5003;57877;39.750;-104.894;2022-12-29T13:29:59;7;6;
70436;PMS5003;57877;39.750;-104.894;2022-12-29T13:34:47;6;6;
70436;PMS5003;57877;39.750;-104.894;2022-12-29T13:37:12;6;6;
70436;PMS5003;57877;39.750;-104.894;2022-12-29T13:49:18;8;8;
70436;PMS5003;57877;39.750;-104.894;2022-12-29T13:51:44;6;5;
70436;PMS5003;57877;39.750;-104.894;2022-12-29T13:56:34;9;8;
70436;PMS5003;57877;39.750;-104.894;2022-12-29T13:59:00;9;8;
70436;PMS5003;57877;39.750;-104.894;2022-12-29T14:01:27;7;7;
70436;PMS5003;57877;39.750;-104.894;2022-12-29T14:11:06;6;5;
70436;PMS5003;57877;39.750;-104.894;2022-12-29T14:13:31;8;8;
70436;PMS5003;57877;39.750;-104.894;2022-12-29T14:28:00;8;6;
70436;PMS5003;57877;39.750;-104.894;2022-12-29T14:44:58;12;11;
70436;PMS5003;57877;39.750;-104.894;2022-12-29T15:01:52;12;8;
70436;PMS5003;57877;39.750;-104.894;2022-12-29T15:04:18;16;14;
70436;PMS5003;57877;39.750;-104.894;2022-12-29T15:06:42;13;13;
70436;PMS5003;57877;39.750;-104.894;2022-12-29T15:09:12;13;12;
70436;PMS5003;57877;39.750;-104.894;2022-12-29T15:18:51;15;14;
70436;PMS5003;57877;39.750;-104.894;2022-12-29T15:23:39;13;10;
70436;PMS5003;57877;39.750;-104.894;2022-12-29T15:26:04;15;11;
70436;PMS5003;57877;39.750;-104.894;2022-12-29T15:30:55;10;9;
70436;PMS5003;57877;39.750;-104.894;2022-12-29T15:33:20;13;9;
70436;PMS5003;57877;39.750;-104.894;2022-12-29T15:35:48;11;10;
70436;PMS5003;57877;39.750;-104.894;2022-12-29T15:38:19;16;15;
70436;PMS5003;57877;39.750;-104.894;2022-12-29T15:40:35;14;14;
70436;PMS5003;57877;39.750;-104.894;2022-12-29T15:43:05;17;16;
70436;PMS5003;57877;39.750;-104.894;2022-12-29T15:45:25;18;17;
70436;PMS5003;57877;39.750;-104.894;2022-12-29T15:47:51;15;14;
70436;PMS5003;57877;39.750;-104.894;2022-12-29T15:50:19;17;17;
70436;PMS5003;57877;39.750;-104.894;2022-12-29T15:52:41;18;18;
70436;PMS5003;57877;39.750;-104.894;2022-12-29T15:55:06;17;17;
70436;PMS5003;57877;39.750;-104.894;2022-12-29T15:57:36;18;17;
70436;PMS5003;57877;39.750;-104.894;2022-12-29T15:59:56;18;18;
70436;PMS5003;57877;39.750;-104.894;2022-12-29T16:02:22;15;15;
70436;PMS5003;57877;39.750;-104.894;2022-12-29T16:04:47;13;12;
70436;PMS5003;57877;39.750;-104.894;2022-12-29T16:09:42;14;12;
70436;PMS5003;57877;39.750;-104.894;2022-12-29T16:16:53;20;19;
70436;PMS5003;57877;39.750;-104.894;2022-12-29T16:19:19;20;20;
70436;PMS5003;57877;39.750;-104.894;2022-12-29T16:21:42;18;17;
70436;PMS5003;57877;39.750;-104.894;2022-12-29T16:24:08;12;12;
70436;PMS5003;57877;39.750;-104.894;2022-12-29T16:26:33;15;12;
70436;PMS5003;57877;39.750;-104.894;2022-12-29T16:28:58;13;11;
70436;PMS5003;57877;39.750;-104.894;2022-12-29T16:31:24;14;12;
70436;PMS5003;57877;39.750;-104.894;2022-12-29T16:33:49;11;11;
70436;PMS5003;57877;39.750;-104.894;2022-12-29T16:38:39;14;14;
70436;PMS5003;57877;39.750;-104.894;2022-12-29T16:41:03;15;13;
70436;PMS5003;57877;39.750;-104.894;2022-12-29T16:43:29;12;10;
70436;PMS5003;57877;39.750;-104.894;2022-12-29T16:48:19;18;17;
70436;PMS5003;57877;39.750;-104.894;2022-12-29T16:50:44;18;15;
70436;PMS5003;57877;39.750;-104.894;2022-12-29T16:55:34;15;12;
70436;PMS5003;57877;39.750;-104.894;2022-12-29T16:57:59;17;13;
70436;PMS5003;57877;39.750;-104.894;2022-12-29T17:00:25;12;12;
70436;PMS5003;57877;39.750;-104.894;2022-12-29T17:02:49;11;11;
70436;PMS5003;57877;39.750;-104.894;2022-12-29T17:05:15;17;16;
70436;PMS5003;57877;39.750;-104.894;2022-12-29T17:07:45;15;14;
70436;PMS5003;57877;39.750;-104.894;2022-12-29T17:10:05;11;10;
70436;PMS5003;57877;39.750;-104.894;2022-12-29T17:12:30;13;11;
70436;PMS5003;57877;39.750;-104.894;2022-12-29T17:14:55;12;7;
70436;PMS5003;57877;39.750;-104.894;2022-12-29T17:17:21;13;10;
70436;PMS5003;57877;39.750;-104.894;2022-12-29T17:19:46;13;8;
70436;PMS5003;57877;39.750;-104.894;2022-12-29T17:22:11;10;10;
70436;PMS5003;57877;39.750;-104.894;2022-12-29T17:24:36;6;5;
70436;PMS5003;57877;39.750;-104.894;2022-12-29T17:27:00;7;7;
70436;PMS5003;57877;39.750;-104.894;2022-12-29T17:29:29;8;8;
70436;PMS5003;57877;39.750;-104.894;2022-12-29T17:31:51;7;7;
70436;PMS5003;57877;39.750;-104.894;2022-12-29T17:34:16;10;9;
70436;PMS5003;57877;39.750;-104.894;2022-12-29T17:36:41;11;11;
70436;PMS5003;57877;39.750;-104.894;2022-12-29T17:39:07;8;8;
70436;PMS5003;57877;39.750;-104.894;2022-12-29T17:41:31;7;7;
70436;PMS5003;57877;39.750;-104.894;2022-12-29T17:43:56;6;6;
70436;PMS5003;57877;39.750;-104.894;2022-12-29T17:46:22;5;4;
70436;PMS5003;57877;39.750;-104.894;2022-12-29T17:48:47;7;5;